sensor_id;sensor_type;location;lat;lon;timestamp;temperature;humidity
20380;DHT22;10349;48.666;8.948;2023-07-13T00:00:24;19.00;99.90
20380;DHT22;10349;48.666;8.948;2023-07-13T00:02:50;18.90;99.90
20380;DHT22;10349;48.666;8.948;2023-07-13T00:05:20;18.80;99.90
20380;DHT22;10349;48.666;8.948;2023-07-13T00:07:45;18.80;99.90
20380;DHT22;10349;48.666;8.948;2023-07-13T00:10:12;18.70;99.90
20380;DHT22;10349;48.666;8.948;2023-07-13T00:12:38;18.60;99.90
20380;DHT22;10349;48.666;8.948;2023-07-13T00:15:17;18.60;99.90
20380;DHT22;10349;48.666;8.948;2023-07-13T00:17:46;18.60;99.90
20380;DHT22;10349;48.666;8.948;2023-07-13T00:20:12;18.60;99.90
20380;DHT22;10349;48.666;8.948;2023-07-13T00:22:38;18.40;99.90
20380;DHT22;10349;48.666;8.948;2023-07-13T00:25:04;18.40;99.90
20380;DHT22;10349;48.666;8.948;2023-07-13T00:27:31;18.30;99.90
20380;DHT22;10349;48.666;8.948;2023-07-13T00:29:57;18.40;99.90
20380;DHT22;10349;48.666;8.948;2023-07-13T00:32:24;18.30;99.90
20380;DHT22;10349;48.666;8.948;2023-07-13T00:34:52;18.30;99.90
20380;DHT22;10349;48.666;8.948;2023-07-13T00:37:17;18.30;99.90
20380;DHT22;10349;48.666;8.948;2023-07-13T00:39:43;18.30;99.90
20380;DHT22;10349;48.666;8.948;2023-07-13T00:42:10;18.30;99.90
20380;DHT22;10349;48.666;8.948;2023-07-13T00:44:36;18.30;99.90
20380;DHT22;10349;48.666;8.948;2023-07-13T00:47:02;18.20;99.90
20380;DHT22;10349;48.666;8.948;2023-07-13T00:49:30;18.20;99.90
20380;DHT22;10349;48.666;8.948;2023-07-13T00:52:06;18.20;99.90
20380;DHT22;10349;48.666;8.948;2023-07-13T00:54:37;18.20;99.90
20380;DHT22;10349;48.666;8.948;2023-07-13T00:57:07;18.10;99.90
20380;DHT22;10349;48.666;8.948;2023-07-13T00:59:35;18.10;99.90
20380;DHT22;10349;48.666;8.948;2023-07-13T01:02:02;18.00;99.90
20380;DHT22;10349;48.666;8.948;2023-07-13T01:04:29;17.90;99.90
20380;DHT22;10349;48.666;8.948;2023-07-13T01:06:55;17.80;99.90
20380;DHT22;10349;48.666;8.948;2023-07-13T01:09:22;17.70;99.90
20380;DHT22;10349;48.666;8.948;2023-07-13T01:11:48;17.70;99.90
20380;DHT22;10349;48.666;8.948;2023-07-13T01:14:15;17.60;99.90
20380;DHT22;10349;48.666;8.948;2023-07-13T01:16:43;17.60;99.90
20380;DHT22;10349;48.666;8.948;2023-07-13T01:19:32;17.60;99.90
20380;DHT22;10349;48.666;8.948;2023-07-13T01:22:22;17.50;99.90
20380;DHT22;10349;48.666;8.948;2023-07-13T01:24:51;17.50;99.90
20380;DHT22;10349;48.666;8.948;2023-07-13T01:27:21;17.50;99.90
20380;DHT22;10349;48.666;8.948;2023-07-13T01:29:51;17.50;99.90
20380;DHT22;10349;48.666;8.948;2023-07-13T01:32:23;17.60;99.90
20380;DHT22;10349;48.666;8.948;2023-07-13T01:34:51;17.60;99.90
20380;DHT22;10349;48.666;8.948;2023-07-13T01:37:20;17.60;99.90
20380;DHT22;10349;48.666;8.948;2023-07-13T01:39:46;17.60;99.90
20380;DHT22;10349;48.666;8.948;2023-07-13T01:42:13;17.60;99.90
20380;DHT22;10349;48.666;8.948;2023-07-13T01:44:39;17.60;99.90
20380;DHT22;10349;48.666;8.948;2023-07-13T01:47:07;17.70;99.90
20380;DHT22;10349;48.666;8.948;2023-07-13T01:49:33;17.60;99.90
20380;DHT22;10349;48.666;8.948;2023-07-13T01:51:58;17.60;99.90
20380;DHT22;10349;48.666;8.948;2023-07-13T01:54:24;17.60;99.90
20380;DHT22;10349;48.666;8.948;2023-07-13T01:56:50;17.50;99.90
20380;DHT22;10349;48.666;8.948;2023-07-13T01:59:15;17.50;99.90
20380;DHT22;10349;48.666;8.948;2023-07-13T02:01:41;17.40;99.90
20380;DHT22;10349;48.666;8.948;2023-07-13T02:04:07;17.30;99.90
20380;DHT22;10349;48.666;8.948;2023-07-13T02:06:33;17.10;99.90
20380;DHT22;10349;48.666;8.948;2023-07-13T02:08:59;17.00;99.90
20380;DHT22;10349;48.666;8.948;2023-07-13T02:11:24;17.10;99.90
20380;DHT22;10349;48.666;8.948;2023-07-13T02:13:51;17.00;99.90
20380;DHT22;10349;48.666;8.948;2023-07-13T02:16:20;17.00;99.90
20380;DHT22;10349;48.666;8.948;2023-07-13T02:18:46;17.00;99.90
20380;DHT22;10349;48.666;8.948;2023-07-13T02:21:11;17.00;99.90
20380;DHT22;10349;48.666;8.948;2023-07-13T02:23:37;17.00;99.90
20380;DHT22;10349;48.666;8.948;2023-07-13T02:26:04;17.10;99.90
20380;DHT22;10349;48.666;8.948;2023-07-13T02:28:29;17.10;99.90
20380;DHT22;10349;48.666;8.948;2023-07-13T02:30:55;17.00;99.90
20380;DHT22;10349;48.666;8.948;2023-07-13T02:33:21;16.90;99.90
20380;DHT22;10349;48.666;8.948;2023-07-13T02:35:47;16.80;99.90
20380;DHT22;10349;48.666;8.948;2023-07-13T02:38:13;16.70;99.90
20380;DHT22;10349;48.666;8.948;2023-07-13T02:40:39;16.70;99.90
20380;DHT22;10349;48.666;8.948;2023-07-13T02:43:04;16.70;99.90
20380;DHT22;10349;48.666;8.948;2023-07-13T02:45:31;16.80;99.90
20380;DHT22;10349;48.666;8.948;2023-07-13T02:47:56;16.70;99.90
20380;DHT22;10349;48.666;8.948;2023-07-13T02:50:22;16.60;99.90
20380;DHT22;10349;48.666;8.948;2023-07-13T02:52:48;16.50;99.90
20380;DHT22;10349;48.666;8.948;2023-07-13T02:55:13;16.50;99.90
20380;DHT22;10349;48.666;8.948;2023-07-13T02:57:40;16.50;99.90
20380;DHT22;10349;48.666;8.948;2023-07-13T03:00:06;16.50;99.90
20380;DHT22;10349;48.666;8.948;2023-07-13T03:02:34;16.40;99.90
20380;DHT22;10349;48.666;8.948;2023-07-13T03:05:00;16.40;99.90
20380;DHT22;10349;48.666;8.948;2023-07-13T03:07:27;16.40;99.90
20380;DHT22;10349;48.666;8.948;2023-07-13T03:09:56;16.40;99.90
20380;DHT22;10349;48.666;8.948;2023-07-13T03:12:25;16.40;99.90
20380;DHT22;10349;48.666;8.948;2023-07-13T03:14:51;16.30;99.90
20380;DHT22;10349;48.666;8.948;2023-07-13T03:17:17;16.30;99.90
20380;DHT22;10349;48.666;8.948;2023-07-13T03:19:43;16.20;99.90
20380;DHT22;10349;48.666;8.948;2023-07-13T03:22:10;16.20;99.90
20380;DHT22;10349;48.666;8.948;2023-07-13T03:24:37;16.10;99.90
20380;DHT22;10349;48.666;8.948;2023-07-13T03:27:04;16.10;99.90
20380;DHT22;10349;48.666;8.948;2023-07-13T03:29:32;16.10;99.90
20380;DHT22;10349;48.666;8.948;2023-07-13T03:31:58;16.10;99.90
20380;DHT22;10349;48.666;8.948;2023-07-13T03:34:23;16.10;99.90
20380;DHT22;10349;48.666;8.948;2023-07-13T03:36:49;16.10;99.90
20380;DHT22;10349;48.666;8.948;2023-07-13T03:39:15;16.20;99.90
20380;DHT22;10349;48.666;8.948;2023-07-13T03:41:51;16.20;99.90
20380;DHT22;10349;48.666;8.948;2023-07-13T03:44:17;16.30;99.90
20380;DHT22;10349;48.666;8.948;2023-07-13T03:46:44;16.30;99.90
20380;DHT22;10349;48.666;8.948;2023-07-13T03:49:10;16.30;99.90
20380;DHT22;10349;48.666;8.948;2023-07-13T03:51:36;16.40;99.90
20380;DHT22;10349;48.666;8.948;2023-07-13T03:54:02;16.40;99.90
20380;DHT22;10349;48.666;8.948;2023-07-13T03:56:28;16.50;99.90
20380;DHT22;10349;48.666;8.948;2023-07-13T03:58:56;16.50;99.90
20380;DHT22;10349;48.666;8.948;2023-07-13T04:01:24;16.50;99.90
20380;DHT22;10349;48.666;8.948;2023-07-13T04:03:53;16.40;99.90
20380;DHT22;10349;48.666;8.948;2023-07-13T04:06:26;16.40;99.90
20380;DHT22;10349;48.666;8.948;2023-07-13T04:08:55;16.30;99.90
20380;DHT22;10349;48.666;8.948;2023-07-13T04:11:23;16.20;99.90
20380;DHT22;10349;48.666;8.948;2023-07-13T04:13:49;16.30;99.90
20380;DHT22;10349;48.666;8.948;2023-07-13T04:16:17;16.10;99.90
20380;DHT22;10349;48.666;8.948;2023-07-13T04:18:43;16.00;99.90
20380;DHT22;10349;48.666;8.948;2023-07-13T04:21:09;16.10;99.90
20380;DHT22;10349;48.666;8.948;2023-07-13T04:23:37;16.10;99.90
20380;DHT22;10349;48.666;8.948;2023-07-13T04:26:03;16.10;99.90
20380;DHT22;10349;48.666;8.948;2023-07-13T04:28:29;16.10;99.90
20380;DHT22;10349;48.666;8.948;2023-07-13T04:30:56;16.10;99.90
20380;DHT22;10349;48.666;8.948;2023-07-13T04:33:22;16.10;99.90
20380;DHT22;10349;48.666;8.948;2023-07-13T04:35:49;16.00;99.90
20380;DHT22;10349;48.666;8.948;2023-07-13T04:38:15;16.00;99.90
20380;DHT22;10349;48.666;8.948;2023-07-13T04:40:44;16.00;99.90
20380;DHT22;10349;48.666;8.948;2023-07-13T04:43:10;16.00;99.90
20380;DHT22;10349;48.666;8.948;2023-07-13T04:45:36;16.10;99.90
20380;DHT22;10349;48.666;8.948;2023-07-13T04:48:02;16.10;99.90
20380;DHT22;10349;48.666;8.948;2023-07-13T04:50:28;16.10;99.90
20380;DHT22;10349;48.666;8.948;2023-07-13T04:52:54;16.10;99.90
20380;DHT22;10349;48.666;8.948;2023-07-13T04:55:20;16.00;99.90
20380;DHT22;10349;48.666;8.948;2023-07-13T04:57:46;16.00;99.90
20380;DHT22;10349;48.666;8.948;2023-07-13T05:00:13;16.00;99.90
20380;DHT22;10349;48.666;8.948;2023-07-13T05:02:43;15.90;99.90
20380;DHT22;10349;48.666;8.948;2023-07-13T05:05:09;15.90;99.90
20380;DHT22;10349;48.666;8.948;2023-07-13T05:07:35;15.90;99.90
20380;DHT22;10349;48.666;8.948;2023-07-13T05:10:02;16.00;99.90
20380;DHT22;10349;48.666;8.948;2023-07-13T05:12:29;16.00;99.90
20380;DHT22;10349;48.666;8.948;2023-07-13T05:14:55;16.10;99.90
20380;DHT22;10349;48.666;8.948;2023-07-13T05:17:21;16.20;99.90
20380;DHT22;10349;48.666;8.948;2023-07-13T05:19:47;16.30;99.90
20380;DHT22;10349;48.666;8.948;2023-07-13T05:22:13;16.40;99.90
20380;DHT22;10349;48.666;8.948;2023-07-13T05:24:38;16.40;99.90
20380;DHT22;10349;48.666;8.948;2023-07-13T05:27:04;16.40;99.90
20380;DHT22;10349;48.666;8.948;2023-07-13T05:29:31;16.50;99.90
20380;DHT22;10349;48.666;8.948;2023-07-13T05:31:56;16.50;99.90
20380;DHT22;10349;48.666;8.948;2023-07-13T05:34:22;16.50;99.90
20380;DHT22;10349;48.666;8.948;2023-07-13T05:36:49;16.60;99.90
20380;DHT22;10349;48.666;8.948;2023-07-13T05:39:15;16.60;99.90
20380;DHT22;10349;48.666;8.948;2023-07-13T05:41:41;16.70;99.90
20380;DHT22;10349;48.666;8.948;2023-07-13T05:44:07;16.80;99.90
20380;DHT22;10349;48.666;8.948;2023-07-13T05:46:33;16.80;99.90
20380;DHT22;10349;48.666;8.948;2023-07-13T05:49:02;16.80;99.90
20380;DHT22;10349;48.666;8.948;2023-07-13T05:51:29;16.90;99.90
20380;DHT22;10349;48.666;8.948;2023-07-13T05:53:54;16.90;99.90
20380;DHT22;10349;48.666;8.948;2023-07-13T05:56:20;17.00;99.90
20380;DHT22;10349;48.666;8.948;2023-07-13T05:58:47;17.10;99.90
20380;DHT22;10349;48.666;8.948;2023-07-13T06:01:14;17.20;99.90
20380;DHT22;10349;48.666;8.948;2023-07-13T06:03:43;17.60;99.90
20380;DHT22;10349;48.666;8.948;2023-07-13T06:06:09;18.10;99.90
20380;DHT22;10349;48.666;8.948;2023-07-13T06:08:36;18.40;99.90
20380;DHT22;10349;48.666;8.948;2023-07-13T06:11:17;18.70;99.90
20380;DHT22;10349;48.666;8.948;2023-07-13T06:13:46;19.00;99.90
20380;DHT22;10349;48.666;8.948;2023-07-13T06:16:16;19.20;99.90
20380;DHT22;10349;48.666;8.948;2023-07-13T06:18:42;19.50;99.90
20380;DHT22;10349;48.666;8.948;2023-07-13T06:21:11;19.50;99.90
20380;DHT22;10349;48.666;8.948;2023-07-13T06:23:37;19.70;99.90
20380;DHT22;10349;48.666;8.948;2023-07-13T06:26:04;19.80;99.90
20380;DHT22;10349;48.666;8.948;2023-07-13T06:28:30;19.70;99.90
20380;DHT22;10349;48.666;8.948;2023-07-13T06:30:57;19.70;99.90
20380;DHT22;10349;48.666;8.948;2023-07-13T06:33:23;19.70;99.90
20380;DHT22;10349;48.666;8.948;2023-07-13T06:35:49;19.80;99.90
20380;DHT22;10349;48.666;8.948;2023-07-13T06:38:15;19.70;99.90
20380;DHT22;10349;48.666;8.948;2023-07-13T06:40:43;19.70;99.90
20380;DHT22;10349;48.666;8.948;2023-07-13T06:43:09;19.90;99.90
20380;DHT22;10349;48.666;8.948;2023-07-13T06:45:43;20.10;99.90
20380;DHT22;10349;48.666;8.948;2023-07-13T06:48:11;20.20;99.90
20380;DHT22;10349;48.666;8.948;2023-07-13T06:50:37;20.30;99.90
20380;DHT22;10349;48.666;8.948;2023-07-13T06:53:02;20.50;99.90
20380;DHT22;10349;48.666;8.948;2023-07-13T06:55:28;20.40;99.90
20380;DHT22;10349;48.666;8.948;2023-07-13T06:57:54;20.40;99.90
20380;DHT22;10349;48.666;8.948;2023-07-13T07:00:19;20.60;99.90
20380;DHT22;10349;48.666;8.948;2023-07-13T07:02:45;20.80;99.90
20380;DHT22;10349;48.666;8.948;2023-07-13T07:05:14;20.90;99.90
20380;DHT22;10349;48.666;8.948;2023-07-13T07:07:42;21.20;99.90
20380;DHT22;10349;48.666;8.948;2023-07-13T07:10:08;21.10;99.90
20380;DHT22;10349;48.666;8.948;2023-07-13T07:12:34;21.30;99.90
20380;DHT22;10349;48.666;8.948;2023-07-13T07:14:59;21.40;99.90
20380;DHT22;10349;48.666;8.948;2023-07-13T07:17:25;21.50;99.90
20380;DHT22;10349;48.666;8.948;2023-07-13T07:19:52;21.50;99.90
20380;DHT22;10349;48.666;8.948;2023-07-13T07:22:22;21.10;99.90
20380;DHT22;10349;48.666;8.948;2023-07-13T07:24:47;20.90;99.90
20380;DHT22;10349;48.666;8.948;2023-07-13T07:27:13;21.00;99.90
20380;DHT22;10349;48.666;8.948;2023-07-13T07:29:39;21.10;99.90
20380;DHT22;10349;48.666;8.948;2023-07-13T07:32:08;21.00;99.90
20380;DHT22;10349;48.666;8.948;2023-07-13T07:34:33;21.10;99.90
20380;DHT22;10349;48.666;8.948;2023-07-13T07:37:00;21.20;99.90
20380;DHT22;10349;48.666;8.948;2023-07-13T07:39:26;21.20;99.90
20380;DHT22;10349;48.666;8.948;2023-07-13T07:41:53;21.20;99.90
20380;DHT22;10349;48.666;8.948;2023-07-13T07:44:18;21.10;99.90
20380;DHT22;10349;48.666;8.948;2023-07-13T07:46:44;21.10;99.90
20380;DHT22;10349;48.666;8.948;2023-07-13T07:49:10;21.20;99.90
20380;DHT22;10349;48.666;8.948;2023-07-13T07:51:36;21.30;99.90
20380;DHT22;10349;48.666;8.948;2023-07-13T07:54:03;21.40;99.90
20380;DHT22;10349;48.666;8.948;2023-07-13T07:56:29;21.40;99.90
20380;DHT22;10349;48.666;8.948;2023-07-13T07:58:58;21.50;99.90
20380;DHT22;10349;48.666;8.948;2023-07-13T08:01:31;21.50;99.90
20380;DHT22;10349;48.666;8.948;2023-07-13T08:04:00;21.60;99.90
20380;DHT22;10349;48.666;8.948;2023-07-13T08:06:29;21.70;99.90
20380;DHT22;10349;48.666;8.948;2023-07-13T08:08:55;21.70;99.90
20380;DHT22;10349;48.666;8.948;2023-07-13T08:11:21;21.80;99.90
20380;DHT22;10349;48.666;8.948;2023-07-13T08:13:47;21.80;99.90
20380;DHT22;10349;48.666;8.948;2023-07-13T08:16:13;21.80;99.90
20380;DHT22;10349;48.666;8.948;2023-07-13T08:18:38;21.90;99.90
20380;DHT22;10349;48.666;8.948;2023-07-13T08:21:08;22.00;99.90
20380;DHT22;10349;48.666;8.948;2023-07-13T08:23:40;22.10;99.90
20380;DHT22;10349;48.666;8.948;2023-07-13T08:26:06;22.10;99.90
20380;DHT22;10349;48.666;8.948;2023-07-13T08:28:33;22.00;99.90
20380;DHT22;10349;48.666;8.948;2023-07-13T08:31:06;22.00;99.90
20380;DHT22;10349;48.666;8.948;2023-07-13T08:33:34;22.10;99.90
20380;DHT22;10349;48.666;8.948;2023-07-13T08:36:00;22.20;99.90
20380;DHT22;10349;48.666;8.948;2023-07-13T08:38:26;22.40;99.90
20380;DHT22;10349;48.666;8.948;2023-07-13T08:40:56;22.50;99.90
20380;DHT22;10349;48.666;8.948;2023-07-13T08:43:28;22.60;99.90
20380;DHT22;10349;48.666;8.948;2023-07-13T08:48:50;22.40;99.90
20380;DHT22;10349;48.666;8.948;2023-07-13T08:54:12;22.50;99.90
20380;DHT22;10349;48.666;8.948;2023-07-13T08:56:45;22.50;99.90
20380;DHT22;10349;48.666;8.948;2023-07-13T08:59:14;22.60;99.90
20380;DHT22;10349;48.666;8.948;2023-07-13T09:02:06;22.70;99.90
20380;DHT22;10349;48.666;8.948;2023-07-13T09:04:45;22.90;99.90
20380;DHT22;10349;48.666;8.948;2023-07-13T09:07:30;23.10;99.90
20380;DHT22;10349;48.666;8.948;2023-07-13T09:10:19;23.20;99.90
20380;DHT22;10349;48.666;8.948;2023-07-13T09:15:41;23.30;99.90
20380;DHT22;10349;48.666;8.948;2023-07-13T09:18:18;23.30;99.90
20380;DHT22;10349;48.666;8.948;2023-07-13T09:20:49;23.30;99.90
20380;DHT22;10349;48.666;8.948;2023-07-13T09:23:19;23.20;99.90
20380;DHT22;10349;48.666;8.948;2023-07-13T09:25:51;23.20;99.90
20380;DHT22;10349;48.666;8.948;2023-07-13T09:28:24;23.20;99.90
20380;DHT22;10349;48.666;8.948;2023-07-13T09:31:07;23.20;99.90
20380;DHT22;10349;48.666;8.948;2023-07-13T09:33:35;23.30;99.90
20380;DHT22;10349;48.666;8.948;2023-07-13T09:36:01;23.30;99.90
20380;DHT22;10349;48.666;8.948;2023-07-13T09:38:29;23.50;99.90
20380;DHT22;10349;48.666;8.948;2023-07-13T09:41:25;23.70;99.90
20380;DHT22;10349;48.666;8.948;2023-07-13T09:44:13;23.90;99.90
20380;DHT22;10349;48.666;8.948;2023-07-13T09:46:45;24.00;99.90
20380;DHT22;10349;48.666;8.948;2023-07-13T09:49:11;24.10;99.90
20380;DHT22;10349;48.666;8.948;2023-07-13T09:51:40;24.00;99.90
20380;DHT22;10349;48.666;8.948;2023-07-13T09:54:09;23.90;99.90
20380;DHT22;10349;48.666;8.948;2023-07-13T09:56:42;23.80;99.90
20380;DHT22;10349;48.666;8.948;2023-07-13T09:59:19;23.80;99.90
20380;DHT22;10349;48.666;8.948;2023-07-13T10:01:45;23.90;99.90
20380;DHT22;10349;48.666;8.948;2023-07-13T10:04:12;23.80;99.90
20380;DHT22;10349;48.666;8.948;2023-07-13T10:06:39;23.60;99.90
20380;DHT22;10349;48.666;8.948;2023-07-13T10:09:09;23.60;99.90
20380;DHT22;10349;48.666;8.948;2023-07-13T10:11:41;23.80;99.90
20380;DHT22;10349;48.666;8.948;2023-07-13T10:14:17;23.90;99.90
20380;DHT22;10349;48.666;8.948;2023-07-13T10:16:45;24.00;99.90
20380;DHT22;10349;48.666;8.948;2023-07-13T10:19:23;24.10;99.90
20380;DHT22;10349;48.666;8.948;2023-07-13T10:22:00;24.30;99.90
20380;DHT22;10349;48.666;8.948;2023-07-13T10:24:31;24.40;99.90
20380;DHT22;10349;48.666;8.948;2023-07-13T10:27:03;24.60;99.90
20380;DHT22;10349;48.666;8.948;2023-07-13T10:29:36;24.70;99.90
20380;DHT22;10349;48.666;8.948;2023-07-13T10:32:09;24.70;99.90
20380;DHT22;10349;48.666;8.948;2023-07-13T10:34:36;24.80;99.90
20380;DHT22;10349;48.666;8.948;2023-07-13T10:37:02;24.90;99.90
20380;DHT22;10349;48.666;8.948;2023-07-13T10:39:28;24.90;99.90
20380;DHT22;10349;48.666;8.948;2023-07-13T10:42:03;24.60;99.90
20380;DHT22;10349;48.666;8.948;2023-07-13T10:44:32;24.60;99.90
20380;DHT22;10349;48.666;8.948;2023-07-13T10:47:04;24.60;99.90
20380;DHT22;10349;48.666;8.948;2023-07-13T10:49:33;24.70;99.90
20380;DHT22;10349;48.666;8.948;2023-07-13T10:52:01;24.80;99.90
20380;DHT22;10349;48.666;8.948;2023-07-13T10:57:41;24.80;99.90
20380;DHT22;10349;48.666;8.948;2023-07-13T11:00:17;24.50;99.90
20380;DHT22;10349;48.666;8.948;2023-07-13T11:02:43;24.50;99.90
20380;DHT22;10349;48.666;8.948;2023-07-13T11:07:56;25.00;99.90
20380;DHT22;10349;48.666;8.948;2023-07-13T11:10:53;25.00;99.90
20380;DHT22;10349;48.666;8.948;2023-07-13T11:16:43;24.90;99.90
20380;DHT22;10349;48.666;8.948;2023-07-13T11:24:52;24.30;99.90
20380;DHT22;10349;48.666;8.948;2023-07-13T11:27:34;23.90;99.90
20380;DHT22;10349;48.666;8.948;2023-07-13T11:38:21;24.50;99.90
20380;DHT22;10349;48.666;8.948;2023-07-13T11:40:49;24.70;99.90
20380;DHT22;10349;48.666;8.948;2023-07-13T11:43:16;24.60;99.90
20380;DHT22;10349;48.666;8.948;2023-07-13T11:45:43;24.70;99.90
20380;DHT22;10349;48.666;8.948;2023-07-13T11:48:19;24.80;99.90
20380;DHT22;10349;48.666;8.948;2023-07-13T11:50:55;25.00;99.90
20380;DHT22;10349;48.666;8.948;2023-07-13T11:53:24;25.20;99.90
20380;DHT22;10349;48.666;8.948;2023-07-13T11:55:55;25.20;99.90
20380;DHT22;10349;48.666;8.948;2023-07-13T11:58:23;25.20;99.90
20380;DHT22;10349;48.666;8.948;2023-07-13T12:00:50;25.10;99.90
20380;DHT22;10349;48.666;8.948;2023-07-13T12:03:21;25.00;99.90
20380;DHT22;10349;48.666;8.948;2023-07-13T12:06:06;25.00;99.90
20380;DHT22;10349;48.666;8.948;2023-07-13T12:08:45;25.00;99.90
20380;DHT22;10349;48.666;8.948;2023-07-13T12:11:18;25.00;99.90
20380;DHT22;10349;48.666;8.948;2023-07-13T12:13:45;25.00;99.90
20380;DHT22;10349;48.666;8.948;2023-07-13T12:16:33;25.00;99.40
20380;DHT22;10349;48.666;8.948;2023-07-13T12:19:02;25.20;99.10
20380;DHT22;10349;48.666;8.948;2023-07-13T12:21:38;25.40;98.90
20380;DHT22;10349;48.666;8.948;2023-07-13T12:24:04;25.60;99.20
20380;DHT22;10349;48.666;8.948;2023-07-13T12:26:31;25.80;97.70
20380;DHT22;10349;48.666;8.948;2023-07-13T12:29:00;25.90;98.10
20380;DHT22;10349;48.666;8.948;2023-07-13T12:34:17;25.90;97.80
20380;DHT22;10349;48.666;8.948;2023-07-13T12:36:59;26.00;97.60
20380;DHT22;10349;48.666;8.948;2023-07-13T12:39:37;26.00;96.90
20380;DHT22;10349;48.666;8.948;2023-07-13T12:42:30;26.00;97.30
20380;DHT22;10349;48.666;8.948;2023-07-13T12:45:12;26.10;96.80
20380;DHT22;10349;48.666;8.948;2023-07-13T12:47:43;26.10;96.30
20380;DHT22;10349;48.666;8.948;2023-07-13T12:50:22;26.30;99.70
20380;DHT22;10349;48.666;8.948;2023-07-13T12:52:53;26.40;99.90
20380;DHT22;10349;48.666;8.948;2023-07-13T12:55:21;26.70;99.90
20380;DHT22;10349;48.666;8.948;2023-07-13T12:57:54;26.70;99.60
20380;DHT22;10349;48.666;8.948;2023-07-13T13:00:30;26.70;99.90
20380;DHT22;10349;48.666;8.948;2023-07-13T13:03:03;26.60;99.50
20380;DHT22;10349;48.666;8.948;2023-07-13T13:05:31;26.60;99.40
20380;DHT22;10349;48.666;8.948;2023-07-13T13:07:57;26.50;99.30
20380;DHT22;10349;48.666;8.948;2023-07-13T13:10:23;26.50;99.90
20380;DHT22;10349;48.666;8.948;2023-07-13T13:12:50;26.40;99.20
20380;DHT22;10349;48.666;8.948;2023-07-13T13:15:16;26.30;98.30
20380;DHT22;10349;48.666;8.948;2023-07-13T13:17:42;26.50;99.20
20380;DHT22;10349;48.666;8.948;2023-07-13T13:20:16;26.40;99.40
20380;DHT22;10349;48.666;8.948;2023-07-13T13:22:42;26.40;99.30
20380;DHT22;10349;48.666;8.948;2023-07-13T13:25:12;26.40;99.30
20380;DHT22;10349;48.666;8.948;2023-07-13T13:27:43;26.60;99.40
20380;DHT22;10349;48.666;8.948;2023-07-13T13:30:15;26.70;99.60
20380;DHT22;10349;48.666;8.948;2023-07-13T13:32:49;26.70;99.20
20380;DHT22;10349;48.666;8.948;2023-07-13T13:35:20;26.90;99.90
20380;DHT22;10349;48.666;8.948;2023-07-13T13:37:47;27.00;99.00
20380;DHT22;10349;48.666;8.948;2023-07-13T13:40:17;27.10;99.00
20380;DHT22;10349;48.666;8.948;2023-07-13T13:42:43;27.00;99.30
20380;DHT22;10349;48.666;8.948;2023-07-13T13:45:10;26.90;98.90
20380;DHT22;10349;48.666;8.948;2023-07-13T13:47:43;27.10;99.70
20380;DHT22;10349;48.666;8.948;2023-07-13T13:52:37;26.90;99.10
20380;DHT22;10349;48.666;8.948;2023-07-13T13:55:14;26.90;99.30
20380;DHT22;10349;48.666;8.948;2023-07-13T13:57:41;27.10;99.60
20380;DHT22;10349;48.666;8.948;2023-07-13T14:00:09;27.10;99.10
20380;DHT22;10349;48.666;8.948;2023-07-13T14:02:41;26.90;99.00
20380;DHT22;10349;48.666;8.948;2023-07-13T14:05:14;26.80;99.60
20380;DHT22;10349;48.666;8.948;2023-07-13T14:07:46;26.80;99.40
20380;DHT22;10349;48.666;8.948;2023-07-13T14:10:17;26.80;99.60
20380;DHT22;10349;48.666;8.948;2023-07-13T14:12:45;26.50;99.50
20380;DHT22;10349;48.666;8.948;2023-07-13T14:15:37;26.70;99.90
20380;DHT22;10349;48.666;8.948;2023-07-13T14:18:02;26.90;99.90
20380;DHT22;10349;48.666;8.948;2023-07-13T14:20:28;27.00;99.50
20380;DHT22;10349;48.666;8.948;2023-07-13T14:22:55;27.00;99.70
20380;DHT22;10349;48.666;8.948;2023-07-13T14:25:21;27.00;98.70
20380;DHT22;10349;48.666;8.948;2023-07-13T14:27:50;26.80;98.70
20380;DHT22;10349;48.666;8.948;2023-07-13T14:30:19;26.50;98.30
20380;DHT22;10349;48.666;8.948;2023-07-13T14:32:46;26.30;98.70
20380;DHT22;10349;48.666;8.948;2023-07-13T14:35:17;26.30;99.50
20380;DHT22;10349;48.666;8.948;2023-07-13T14:37:43;26.30;99.70
20380;DHT22;10349;48.666;8.948;2023-07-13T14:40:14;26.60;99.90
20380;DHT22;10349;48.666;8.948;2023-07-13T14:42:40;26.80;99.90
20380;DHT22;10349;48.666;8.948;2023-07-13T14:45:15;27.00;99.90
20380;DHT22;10349;48.666;8.948;2023-07-13T14:47:42;27.00;99.90
20380;DHT22;10349;48.666;8.948;2023-07-13T14:50:30;26.80;99.80
20380;DHT22;10349;48.666;8.948;2023-07-13T14:52:56;26.30;99.90
20380;DHT22;10349;48.666;8.948;2023-07-13T14:55:22;26.20;99.90
20380;DHT22;10349;48.666;8.948;2023-07-13T14:57:51;26.30;99.90
20380;DHT22;10349;48.666;8.948;2023-07-13T15:00:21;26.30;99.90
20380;DHT22;10349;48.666;8.948;2023-07-13T15:02:51;26.40;99.90
20380;DHT22;10349;48.666;8.948;2023-07-13T15:05:21;26.40;99.90
20380;DHT22;10349;48.666;8.948;2023-07-13T15:07:48;26.50;99.90
20380;DHT22;10349;48.666;8.948;2023-07-13T15:10:24;26.70;99.90
20380;DHT22;10349;48.666;8.948;2023-07-13T15:12:51;26.80;99.90
20380;DHT22;10349;48.666;8.948;2023-07-13T15:15:17;27.00;99.90
20380;DHT22;10349;48.666;8.948;2023-07-13T15:17:47;26.90;99.60
20380;DHT22;10349;48.666;8.948;2023-07-13T15:20:31;26.90;99.90
20380;DHT22;10349;48.666;8.948;2023-07-13T15:22:58;27.00;99.60
20380;DHT22;10349;48.666;8.948;2023-07-13T15:25:26;27.00;99.90
20380;DHT22;10349;48.666;8.948;2023-07-13T15:27:53;27.10;99.60
20380;DHT22;10349;48.666;8.948;2023-07-13T15:30:20;26.90;99.60
20380;DHT22;10349;48.666;8.948;2023-07-13T15:32:46;26.80;99.40
20380;DHT22;10349;48.666;8.948;2023-07-13T15:35:20;26.90;99.80
20380;DHT22;10349;48.666;8.948;2023-07-13T15:37:47;26.90;99.70
20380;DHT22;10349;48.666;8.948;2023-07-13T15:40:14;27.20;99.90
20380;DHT22;10349;48.666;8.948;2023-07-13T15:42:41;27.40;99.70
20380;DHT22;10349;48.666;8.948;2023-07-13T15:45:19;27.30;99.50
20380;DHT22;10349;48.666;8.948;2023-07-13T15:47:46;27.30;99.30
20380;DHT22;10349;48.666;8.948;2023-07-13T15:50:14;27.20;99.50
20380;DHT22;10349;48.666;8.948;2023-07-13T15:52:41;27.20;99.90
20380;DHT22;10349;48.666;8.948;2023-07-13T15:55:11;27.20;99.90
20380;DHT22;10349;48.666;8.948;2023-07-13T15:57:38;27.00;99.10
20380;DHT22;10349;48.666;8.948;2023-07-13T16:00:25;26.80;99.20
20380;DHT22;10349;48.666;8.948;2023-07-13T16:02:54;26.70;99.50
20380;DHT22;10349;48.666;8.948;2023-07-13T16:05:21;26.80;99.90
20380;DHT22;10349;48.666;8.948;2023-07-13T16:07:48;27.00;99.70
20380;DHT22;10349;48.666;8.948;2023-07-13T16:10:16;27.00;99.20
20380;DHT22;10349;48.666;8.948;2023-07-13T16:12:42;26.80;99.10
20380;DHT22;10349;48.666;8.948;2023-07-13T16:15:14;26.60;99.20
20380;DHT22;10349;48.666;8.948;2023-07-13T16:17:40;26.30;99.30